Lena, LA (71447)

3:17 AM CDT on March 24, 2017 (GMT -0500)
MUP882 | | Change Station

Elev 121 ft 31.46 °N, 92.77 °W | Updated 8 hours ago

Overcast
Overcast
84.0 °F
Feels Like 84.0 °F
N
-
Wind Variable Wind from North

Today
High -- | Low -- °F
--% Chance of Precip.
Yesterday
High -- | Low -- °F
Precip. -- in
Pressure 30.08 in
Visibility 7.0 miles
Clouds Mostly Cloudy 1800 ft
Overcast 2500 ft
Dew Point Not available.
Humidity Not available.
Rainfall in
Snow Depth Not available.
7:09 AM 7:25 PM
Waning Crescent, 17% visible
METAR KAEX 240753Z 14011KT 7SM BKN018 OVC025 20/18 A3007 RMK AO2 SLP185 T02000178
Pressure 30.08 in
Visibility 7.0 miles
Clouds Mostly Cloudy 1800 ft
Overcast 2500 ft
Dew Point Not available.
Humidity Not available.
Rainfall in
Snow Depth Not available.
7:09 AM 7:25 PM
Waning Crescent, 17% visible
METAR KAEX 240753Z 14011KT 7SM BKN018 OVC025 20/18 A3007 RMK AO2 SLP185 T02000178

Get Severe Weather Alerts

Thanks for signing up!

Be on the lookout for a verification email in your inbox.

You'll start receiving the daily forecast at 8 AM.

×

10-Day Weather Forecast

Almanac

Astronomy

Mar. 24, 2017 Rise Set
Actual Time
Civil Twilight
Nautical Twilight
Astronomical Twilight
Moon
Length of Visible Light
Length of Day
Tomorrow will be .
, % of the Moon is Illuminated

Today's Extremes

State Highs State Lows

Community

WunderPhotos

Upload Photos

1,962,540 photos uploaded!

WunderBlog® & News

Nearby

Air Quality

  Air Quality AQ Index Pollutant
Not available.

Snow Depth

Station Depth Elevation

Earthquake Activity

City Distance Mag. Time & Date
Minimum magnitude displayed is 2.5.

Earthquake Activity

City Distance Mag. Time & Date
Minimum magnitude displayed is 2.5.

Coastal Water Temperatures

Place Temperature

Stations

Nearby Weather Stations

Station Location Temp. Windchill Dew Point Humidity Wind Precip. Elev Updated Type
                   

Watches & Warnings

There are currently no watches in effect.